North Fort Myers, Florida
Current Conditions -  °F | °C
As of 3:53 AM on Monday 20 Oct 2014 (Local Time) from KFMY Reporting Station
Clear Clear  
Wind Chill: 68°   Ceiling: Unl
Heat Index: 68°   Visibility: 10mi
Dew Point: 65°   Wind: 5mph
Humidity: 90%   Direction: 80°E
Pressure: 29.99"   Gusts: NA
Location:  26.68°N, 81.9°W
Report Text: KFMY 200753Z AUTO 08004KT 10SM CLR 20/18 A2999 RMK AO2 SLP156 T02000183
Loading
Personal Weather Stations






























Interactive Weather Map
Tropical Storm Tracking
New forecast layout! Learn more

10-Day Weather Forecast

Advertisements
Track Severe Weather on mobile